Annapolis, Washington
Current Conditions -  °F | °C
As of 9:15 AM on Sunday 23 Nov 2014 (Local Time) from KPWT Reporting Station
Overcast Overcast  
Wind Chill: 43°   Ceiling: 800
Heat Index: 48°   Visibility: 10mi
Dew Point: 48°   Wind: 12mph
Humidity: 100%   Direction: 200°SSW
Pressure: 30.1"   Gusts: NA
Location:  47.5378°N, 122.589°W
Report Text: KPWT 231715Z AUTO 20010KT 10SM BKN008 OVC013 09/09 A3010 RMK AO1
Loading
Personal Weather Stations






























Interactive Weather Map New forecast layout! Learn more

10-Day Weather Forecast

Advertisements
Track Severe Weather on mobile